Time;durP1;ratioP1;P1;durP2;ratioP2;P2;SDS_P1;SDS_P2;PMS_P1;PMS_P2;Temp;Humidity;BMP_temperature;BMP_pressure;BME280_temperature;BME280_humidity;BME280_pressure;Samples;Min_cycle;Max_cycle;Signal;HPM_P1;HPM_P2
2022/01/07 00:00:59;;;;;;;18.80;10.20;;;;;;;0.23;93.26;99102.91;5024695;27;103217;-77
2022/01/07 00:03:28;;;;;;;10.93;8.23;;;;;;;0.33;93.51;99099.22;5013946;27;102693;-77
2022/01/07 00:05:58;;;;;;;15.43;11.03;;;;;;;0.28;92.11;99100.22;5027213;27;102621;-77
2022/01/07 00:08:26;;;;;;;18.50;12.00;;;;;;;0.18;91.38;99096.13;5022175;27;103055;-68
2022/01/07 00:10:56;;;;;;;17.43;10.70;;;;;;;-0.08;91.94;99091.56;5012185;28;103204;-68
2022/01/07 00:13:25;;;;;;;14.87;10.73;;;;;;;-0.07;93.12;99093.28;5020568;28;102650;-68
2022/01/07 00:15:56;;;;;;;13.20;8.13;;;;;;;0.09;93.16;99083.34;5021592;28;102655;-68
2022/01/07 00:18:24;;;;;;;14.10;10.87;;;;;;;0.13;92.58;99080.66;5006978;28;104314;-68
2022/01/07 00:20:53;;;;;;;17.30;11.23;;;;;;;-0.06;90.98;99074.22;5022615;27;103199;-68
2022/01/07 00:23:22;;;;;;;15.50;11.07;;;;;;;-0.38;91.68;99074.09;5023711;27;102570;-68
2022/01/07 00:25:50;;;;;;;13.60;10.73;;;;;;;-0.34;92.77;99060.16;5021619;27;102688;-68
2022/01/07 00:28:20;;;;;;;14.73;10.97;;;;;;;-0.40;92.48;99060.28;5021343;27;103236;-68
2022/01/07 00:30:48;;;;;;;14.07;10.97;;;;;;;-0.70;93.78;99062.66;5023112;27;103372;-68
2022/01/07 00:33:17;;;;;;;15.57;11.43;;;;;;;-0.50;94.65;99051.84;5022393;27;103198;-68
2022/01/07 00:35:46;;;;;;;14.27;10.53;;;;;;;-0.53;94.07;99051.09;5004575;28;102738;-68
2022/01/07 00:38:14;;;;;;;17.40;11.33;;;;;;;-0.49;93.99;99047.53;5022533;27;103256;-68
2022/01/07 00:40:42;;;;;;;13.30;9.30;;;;;;;-0.41;93.76;99053.38;5015347;28;103039;-68
2022/01/07 00:43:11;;;;;;;18.20;10.87;;;;;;;-0.45;93.06;99052.59;5021111;27;102580;-68
2022/01/07 00:45:40;;;;;;;14.97;9.13;;;;;;;-0.38;93.13;99050.72;5023669;27;103575;-77
2022/01/07 00:48:08;;;;;;;13.37;9.47;;;;;;;-0.36;92.54;99067.09;5014553;28;103848;-77
2022/01/07 00:50:36;;;;;;;12.63;8.80;;;;;;;-0.34;92.44;99052.38;5023538;27;103220;-68
2022/01/07 00:53:04;;;;;;;13.87;9.53;;;;;;;-0.30;92.50;99057.44;5024152;27;102653;-68
2022/01/07 00:55:33;;;;;;;13.30;9.33;;;;;;;-0.51;92.01;99050.16;5025587;27;103075;-76
2022/01/07 00:58:01;;;;;;;11.90;8.80;;;;;;;-0.40;93.06;99042.13;5022517;28;103212;-77
2022/01/07 01:00:29;;;;;;;15.17;10.07;;;;;;;-0.36;92.51;99043.75;5020997;28;103156;-67
2022/01/07 01:02:59;;;;;;;14.97;9.37;;;;;;;-0.47;92.06;99050.94;5021803;27;103089;-69
2022/01/07 01:05:29;;;;;;;12.67;8.40;;;;;;;-0.39;92.69;99043.84;5018793;28;102617;-68
2022/01/07 01:07:59;;;;;;;18.23;10.47;;;;;;;-0.37;93.08;99036.88;5022136;27;103579;-68
2022/01/07 01:10:28;;;;;;;10.07;7.33;;;;;;;-0.34;92.71;99042.00;5020736;28;103253;-77
2022/01/07 01:12:56;;;;;;;11.97;8.37;;;;;;;-0.29;92.04;99035.81;5022940;27;102571;-77
2022/01/07 01:15:27;;;;;;;14.20;8.80;;;;;;;-0.26;92.75;99034.88;5021803;27;102565;-77
2022/01/07 01:18:00;;;;;;;12.83;8.70;;;;;;;-0.21;92.28;99022.63;5013204;28;104270;-77
2022/01/07 01:20:29;;;;;;;11.40;8.80;;;;;;;-0.15;92.40;99028.53;5023336;27;102584;-77
2022/01/07 01:22:57;;;;;;;11.47;8.40;;;;;;;-0.12;92.22;99023.25;5023495;27;103004;-68
2022/01/07 01:25:25;;;;;;;13.67;8.73;;;;;;;-0.19;91.50;99026.03;5013384;28;103861;-68
2022/01/07 01:27:54;;;;;;;11.93;9.20;;;;;;;-0.21;91.35;99025.22;5021086;27;103240;-68
2022/01/07 01:30:26;;;;;;;13.93;8.80;;;;;;;-0.18;92.51;99018.22;5021450;27;102726;-68
2022/01/07 01:32:55;;;;;;;9.33;7.10;;;;;;;-0.11;92.38;99013.69;5021937;28;102577;-69
2022/01/07 01:35:25;;;;;;;11.63;8.90;;;;;;;-0.17;92.67;99013.88;5020281;28;103954;-69
2022/01/07 01:37:53;;;;;;;11.83;8.60;;;;;;;-0.11;92.44;99024.09;5020279;28;103290;-68
2022/01/07 01:40:22;;;;;;;13.00;8.40;;;;;;;-0.07;92.24;99010.16;5024158;27;103138;-68
2022/01/07 01:42:53;;;;;;;9.73;7.63;;;;;;;-0.07;92.42;99011.00;5020809;27;102603;-68
2022/01/07 01:45:22;;;;;;;13.70;8.73;;;;;;;-0.06;91.86;99014.47;5012105;28;103537;-68
2022/01/07 01:47:50;;;;;;;14.10;9.00;;;;;;;-0.11;91.77;99017.16;5020607;27;104088;-68
2022/01/07 01:50:18;;;;;;;14.47;9.20;;;;;;;-0.10;91.54;99025.81;5013516;28;102747;-77
2022/01/07 01:52:50;;;;;;;10.07;7.77;;;;;;;-0.17;91.76;99017.31;5023029;27;103479;-77
2022/01/07 01:55:23;;;;;;;15.77;10.20;;;;;;;-0.13;91.79;99018.09;5013249;28;103160;-68
2022/01/07 01:57:52;;;;;;;12.73;9.57;;;;;;;-0.15;91.82;99009.50;5020915;27;103796;-76
2022/01/07 02:00:21;;;;;;;8.97;7.37;;;;;;;-0.10;92.16;99002.44;5023381;27;103181;-68
2022/01/07 02:02:49;;;;;;;15.93;10.10;;;;;;;-0.12;91.51;98997.28;5015196;27;102969;-69
2022/01/07 02:05:18;;;;;;;14.57;8.63;;;;;;;-0.12;91.45;98991.25;5021172;27;104221;-68
2022/01/07 02:07:46;;;;;;;12.17;8.97;;;;;;;-0.12;91.85;98981.72;5004672;27;103794;-68
2022/01/07 02:10:17;;;;;;;13.03;8.50;;;;;;;-0.16;92.57;98974.00;5025439;27;103198;-76
2022/01/07 02:12:47;;;;;;;14.03;9.00;;;;;;;-0.14;93.07;98977.44;5019881;27;102720;-68
2022/01/07 02:15:18;;;;;;;11.37;8.53;;;;;;;-0.18;92.62;98984.44;5017081;27;103561;-68
2022/01/07 02:17:49;;;;;;;16.60;10.27;;;;;;;-0.20;93.55;98980.19;5019468;27;103749;-69
2022/01/07 02:20:21;;;;;;;14.80;10.20;;;;;;;-0.15;93.48;98978.31;5018679;28;103185;-68
2022/01/07 02:22:49;;;;;;;13.03;9.43;;;;;;;-0.11;93.55;98977.34;5019175;27;103082;-68
2022/01/07 02:25:17;;;;;;;12.70;9.27;;;;;;;-0.11;93.69;98974.75;5017357;28;103886;-68
2022/01/07 02:27:48;;;;;;;13.43;9.97;;;;;;;-0.05;93.98;98969.41;5012890;28;103078;-68
2022/01/07 02:30:20;;;;;;;13.27;9.73;;;;;;;0.00;93.56;98959.78;5021022;27;104112;-69
2022/01/07 02:32:49;;;;;;;13.87;9.80;;;;;;;0.02;93.50;98963.16;5022276;27;102567;-68
2022/01/07 02:35:22;;;;;;;10.90;8.17;;;;;;;0.06;92.72;98967.38;5017839;28;103951;-68
2022/01/07 02:37:50;;;;;;;15.00;9.80;;;;;;;0.08;92.26;98962.16;5011677;27;104378;-68
2022/01/07 02:40:18;;;;;;;14.83;10.43;;;;;;;0.03;91.97;98962.25;5020609;27;103327;-68
2022/01/07 02:42:47;;;;;;;13.40;9.27;;;;;;;0.03;92.54;98961.44;5023145;27;102574;-76
2022/01/07 02:45:15;;;;;;;15.10;10.63;;;;;;;-0.04;92.55;98958.13;5016440;28;103624;-68
2022/01/07 02:47:52;;;;;;;16.17;10.90;;;;;;;-0.13;93.18;98959.22;5019868;27;103950;-68
2022/01/07 02:50:24;;;;;;;15.50;11.03;;;;;;;-0.16;94.14;98961.03;5013535;28;104184;-77
2022/01/07 02:52:53;;;;;;;14.37;10.00;;;;;;;-0.12;93.76;98954.88;5014078;27;103139;-68
2022/01/07 02:55:22;;;;;;;14.83;8.93;;;;;;;-0.07;93.24;98963.41;5018828;27;104037;-68
2022/01/07 02:57:50;;;;;;;13.63;8.47;;;;;;;-0.04;93.21;98958.13;5020300;27;103243;-68
2022/01/07 03:00:19;;;;;;;12.93;8.53;;;;;;;0.03;92.53;98964.84;5017426;27;103007;-68
2022/01/07 03:02:49;;;;;;;12.90;8.57;;;;;;;0.01;92.11;98958.84;5014797;27;102698;-68
2022/01/07 03:05:18;;;;;;;15.33;10.10;;;;;;;-0.20;92.24;98952.47;5019833;27;103619;-69
2022/01/07 03:07:51;;;;;;;11.53;9.20;;;;;;;-0.12;92.14;98952.28;5019533;27;104058;-69
2022/01/07 03:10:21;;;;;;;16.53;10.33;;;;;;;-0.62;93.56;98959.53;5018942;27;103212;-68
2022/01/07 03:12:51;;;;;;;13.83;9.77;;;;;;;-0.42;94.35;98955.66;5018336;27;102691;-69
2022/01/07 03:15:19;;;;;;;15.77;10.07;;;;;;;-0.60;93.59;98960.38;5017971;28;102721;-68
2022/01/07 03:17:47;;;;;;;13.50;9.83;;;;;;;-0.69;95.05;98958.00;5000024;28;103844;-68
2022/01/07 03:20:18;;;;;;;13.57;9.70;;;;;;;-0.61;94.88;98961.25;5014184;28;103196;-68
2022/01/07 03:22:47;;;;;;;13.47;10.00;;;;;;;-0.75;94.88;98967.66;5018536;28;102607;-68
2022/01/07 03:25:18;;;;;;;16.17;9.60;;;;;;;-0.88;95.49;98972.28;5014631;28;103978;-68
2022/01/07 03:27:46;;;;;;;15.00;10.57;;;;;;;-0.89;96.94;98969.72;5014883;27;103236;-68
2022/01/07 03:30:17;;;;;;;15.07;9.67;;;;;;;-1.11;97.13;98968.47;5018611;28;103357;-68
2022/01/07 03:32:45;;;;;;;12.77;10.73;;;;;;;-1.19;97.02;98961.72;5010381;28;102700;-68
2022/01/07 03:35:14;;;;;;;13.43;9.33;;;;;;;-0.95;97.30;98962.91;5016224;28;103125;-68
2022/01/07 03:37:43;;;;;;;16.90;10.70;;;;;;;-0.95;95.70;98960.31;5018737;28;102982;-68
2022/01/07 03:40:13;;;;;;;14.60;9.00;;;;;;;-0.73;96.72;98952.94;5019399;27;103197;-68
2022/01/07 03:42:44;;;;;;;13.60;9.30;;;;;;;-0.60;95.27;98952.59;5003643;28;102918;-68
2022/01/07 03:45:14;;;;;;;9.80;7.73;;;;;;;-0.45;94.56;98963.50;5017972;27;104059;-68
2022/01/07 03:47:42;;;;;;;11.37;9.13;;;;;;;-0.36;94.18;98958.06;5015936;28;103943;-68
2022/01/07 03:50:14;;;;;;;13.13;9.00;;;;;;;-0.29;93.57;98951.84;5016643;28;103430;-68
2022/01/07 03:52:43;;;;;;;12.13;9.63;;;;;;;-0.34;92.70;98948.53;5016814;28;102658;-68
2022/01/07 03:55:16;;;;;;;13.13;10.53;;;;;;;-0.73;93.26;98943.38;5022681;27;103855;-68
2022/01/07 03:57:46;;;;;;;13.37;9.53;;;;;;;-0.58;94.00;98955.16;5016984;28;103821;-68
2022/01/07 04:00:16;;;;;;;12.20;9.20;;;;;;;-0.56;94.13;98953.34;5018820;27;103206;-68
2022/01/07 04:02:45;;;;;;;12.87;9.33;;;;;;;-0.51;92.71;98951.53;5022995;27;102576;-69
2022/01/07 04:05:20;;;;;;;11.43;8.83;;;;;;;-0.47;92.30;98952.28;5024515;27;103725;-68
2022/01/07 04:07:49;;;;;;;13.73;8.87;;;;;;;-0.43;92.29;98948.75;5009314;28;104280;-68
2022/01/07 04:10:18;;;;;;;12.10;9.00;;;;;;;-0.43;92.12;98954.78;5021464;27;103195;-68
2022/01/07 04:12:47;;;;;;;10.53;8.80;;;;;;;-0.44;92.16;98952.22;5006571;28;102692;-69
2022/01/07 04:15:16;;;;;;;12.73;7.70;;;;;;;-0.37;92.10;98946.84;5006939;28;102856;-68
2022/01/07 04:17:48;;;;;;;11.10;8.50;;;;;;;-0.36;92.07;98942.50;5019051;27;103977;-68
2022/01/07 04:20:18;;;;;;;9.33;7.70;;;;;;;-0.28;91.44;98943.19;5011548;28;103235;-69
2022/01/07 04:22:48;;;;;;;10.07;7.73;;;;;;;-0.25;91.42;98937.88;5021454;27;102611;-68
2022/01/07 04:25:18;;;;;;;11.93;8.40;;;;;;;-0.31;90.32;98943.25;5020616;28;104478;-69
2022/01/07 04:27:50;;;;;;;10.67;7.60;;;;;;;-0.38;90.72;98954.66;5014497;28;103289;-68
2022/01/07 04:30:19;;;;;;;10.10;6.93;;;;;;;-0.41;91.00;98955.59;5009018;28;104201;-69
2022/01/07 04:32:48;;;;;;;10.80;7.17;;;;;;;-0.39;90.68;98953.81;5021869;27;102553;-68
2022/01/07 04:35:17;;;;;;;9.03;5.77;;;;;;;-0.33;90.75;98958.84;5019350;28;104115;-69
2022/01/07 04:37:46;;;;;;;9.90;6.93;;;;;;;-0.34;89.94;98954.56;5015966;27;104022;-69
2022/01/07 04:40:16;;;;;;;10.20;7.13;;;;;;;-0.36;90.38;98971.06;5021376;27;103224;-68
2022/01/07 04:42:45;;;;;;;11.93;8.10;;;;;;;-0.55;90.05;98962.84;5017156;27;102535;-69
2022/01/07 04:45:15;;;;;;;11.10;7.27;;;;;;;-0.60;90.83;98969.91;5019457;27;103561;-69
2022/01/07 04:47:43;;;;;;;11.33;7.00;;;;;;;-0.54;91.22;98953.34;5018178;28;103728;-68
2022/01/07 04:50:13;;;;;;;8.43;6.03;;;;;;;-0.45;91.10;98961.75;5012619;27;103197;-68
2022/01/07 04:52:44;;;;;;;8.83;5.90;;;;;;;-0.50;90.37;98962.75;5012225;28;102648;-68
2022/01/07 04:55:14;;;;;;;8.10;5.23;;;;;;;-0.42;90.59;98968.63;5011959;28;104216;-68
2022/01/07 04:57:42;;;;;;;7.67;5.67;;;;;;;-0.45;89.60;98973.88;5020526;28;103812;-68
2022/01/07 05:00:12;;;;;;;5.67;4.67;;;;;;;-0.32;88.82;98964.91;5022789;27;103031;-69
2022/01/07 05:02:41;;;;;;;7.53;4.97;;;;;;;-0.32;88.33;98970.09;5019370;27;102584;-68
2022/01/07 05:05:10;;;;;;;5.67;4.30;;;;;;;-0.23;87.94;98980.25;5024043;27;103753;-68
2022/01/07 05:07:38;;;;;;;8.80;5.10;;;;;;;-0.21;87.99;98970.69;5012096;28;104186;-68
2022/01/07 05:10:08;;;;;;;6.83;4.80;;;;;;;-0.17;87.38;98967.13;5020657;27;103408;-68
2022/01/07 05:12:36;;;;;;;6.63;4.83;;;;;;;-0.20;87.13;98964.59;5009802;28;104221;-68
2022/01/07 05:15:06;;;;;;;7.67;4.60;;;;;;;-0.29;87.82;98968.28;5020294;28;103102;-69
2022/01/07 05:17:35;;;;;;;5.33;4.00;;;;;;;-0.19;87.82;98963.69;5019947;27;104065;-71
2022/01/07 05:20:05;;;;;;;5.43;4.33;;;;;;;-0.17;87.65;98959.34;5020376;27;102982;-67
2022/01/07 05:22:34;;;;;;;7.50;5.33;;;;;;;-0.17;87.36;98967.97;5007665;28;102956;-67
2022/01/07 05:25:02;;;;;;;8.40;4.60;;;;;;;-0.21;87.23;98960.28;5022953;28;102873;-67
2022/01/07 05:27:30;;;;;;;6.83;4.30;;;;;;;-0.16;87.29;98959.28;5020617;28;103743;-67
2022/01/07 05:29:58;;;;;;;7.27;5.20;;;;;;;-0.33;87.54;98965.78;5010780;28;103387;-67
2022/01/07 05:32:26;;;;;;;6.83;4.67;;;;;;;-0.25;87.35;98958.66;5020106;27;102580;-67
2022/01/07 05:34:55;;;;;;;8.10;5.27;;;;;;;-0.27;87.50;98960.44;5010147;28;102671;-70
2022/01/07 05:37:24;;;;;;;7.57;5.47;;;;;;;-0.34;88.04;98964.97;5010058;28;104225;-69
2022/01/07 05:39:57;;;;;;;7.23;5.00;;;;;;;-0.26;87.75;98951.78;5015524;27;103265;-69
2022/01/07 05:42:25;;;;;;;5.87;4.87;;;;;;;-0.28;88.18;98948.38;5021504;27;102598;-69
2022/01/07 05:44:55;;;;;;;10.50;5.73;;;;;;;-0.25;88.02;98938.75;5006115;28;102689;-69
2022/01/07 05:47:25;;;;;;;8.33;6.07;;;;;;;-0.15;87.87;98936.78;5019587;27;103246;-69
2022/01/07 05:49:53;;;;;;;8.53;5.07;;;;;;;-0.11;87.25;98935.78;5020535;27;103349;-69
2022/01/07 05:52:21;;;;;;;7.87;5.57;;;;;;;-0.17;87.69;98936.78;5022778;27;102642;-69
2022/01/07 05:54:51;;;;;;;7.63;5.23;;;;;;;-0.13;87.69;98942.78;5012053;28;104114;-69
2022/01/07 05:57:19;;;;;;;8.07;5.53;;;;;;;-0.12;87.97;98939.28;5017902;27;103932;-68
2022/01/07 05:59:48;;;;;;;7.07;5.80;;;;;;;-0.14;87.34;98941.09;5020527;27;103334;-69
2022/01/07 06:02:16;;;;;;;7.40;5.97;;;;;;;-0.07;87.60;98938.28;5006619;28;102659;-69
2022/01/07 06:04:50;;;;;;;7.73;6.30;;;;;;;-0.13;88.00;98937.56;5013902;28;102860;-69
2022/01/07 06:07:20;;;;;;;7.90;5.80;;;;;;;-0.02;87.84;98935.56;5018407;28;103483;-69
2022/01/07 06:09:48;;;;;;;6.47;5.30;;;;;;;-0.03;87.89;98933.88;5016249;27;103221;-69
2022/01/07 06:12:18;;;;;;;10.40;6.23;;;;;;;-0.04;87.68;98927.81;5007721;28;102695;-68
2022/01/07 06:14:46;;;;;;;8.43;6.10;;;;;;;-0.09;88.14;98923.63;5021664;27;103836;-69
2022/01/07 06:17:16;;;;;;;9.97;6.57;;;;;;;-0.20;89.01;98925.66;5018658;27;104183;-69
2022/01/07 06:19:44;;;;;;;9.40;6.33;;;;;;;-0.10;88.97;98921.91;5008701;27;104277;-69
2022/01/07 06:22:13;;;;;;;9.70;7.00;;;;;;;-0.07;88.66;98932.22;5008751;28;103013;-69
2022/01/07 06:24:41;;;;;;;8.37;6.77;;;;;;;-0.07;88.43;98924.44;5019443;28;104024;-69
2022/01/07 06:27:09;;;;;;;9.07;6.47;;;;;;;-0.09;88.84;98923.63;5021273;27;103771;-69
2022/01/07 06:29:39;;;;;;;9.30;5.83;;;;;;;-0.01;88.73;98919.09;5015599;27;103214;-69
2022/01/07 06:32:09;;;;;;;7.37;6.23;;;;;;;-0.01;88.87;98921.69;5021346;27;102638;-69
2022/01/07 06:34:37;;;;;;;8.67;6.50;;;;;;;-0.02;88.71;98917.38;5010633;28;102695;-69
2022/01/07 06:37:06;;;;;;;7.17;6.23;;;;;;;0.04;88.41;98914.63;5019415;27;103292;-68
2022/01/07 06:39:34;;;;;;;6.27;5.37;;;;;;;0.11;88.00;98916.16;5019420;27;103832;-69
2022/01/07 06:42:04;;;;;;;17.03;6.77;;;;;;;0.15;87.75;98920.38;5021786;27;103506;-69
2022/01/07 06:44:32;;;;;;;8.53;6.67;;;;;;;0.09;88.19;98923.13;5016612;27;102618;-69
2022/01/07 06:47:04;;;;;;;9.97;7.00;;;;;;;0.09;88.03;98917.06;5017735;27;103905;-69
2022/01/07 06:49:33;;;;;;;10.87;7.60;;;;;;;0.03;88.56;98919.88;5018164;28;103199;-69
2022/01/07 06:52:01;;;;;;;8.43;6.93;;;;;;;0.06;88.64;98923.22;5021230;27;102636;-69
2022/01/07 06:54:31;;;;;;;9.33;7.47;;;;;;;0.10;88.58;98911.84;5015947;27;102762;-69
2022/01/07 06:57:02;;;;;;;10.00;7.27;;;;;;;0.14;87.97;98916.06;5021582;27;103819;-69
2022/01/07 06:59:31;;;;;;;11.97;7.93;;;;;;;0.14;87.98;98905.66;5018587;27;103192;-69
2022/01/07 07:01:59;;;;;;;10.10;7.20;;;;;;;0.07;88.12;98909.34;5018011;27;102846;-68
2022/01/07 07:04:29;;;;;;;10.30;7.97;;;;;;;0.17;87.72;98902.97;5021271;27;103739;-69
2022/01/07 07:06:58;;;;;;;10.20;7.93;;;;;;;0.22;87.91;98900.28;5006251;28;104177;-68
2022/01/07 07:09:26;;;;;;;10.07;7.53;;;;;;;0.21;87.54;98896.81;5018647;27;103224;-69
2022/01/07 07:11:54;;;;;;;9.80;7.77;;;;;;;0.25;87.41;98906.25;5016817;27;102586;-68
2022/01/07 07:14:22;;;;;;;10.07;7.27;;;;;;;0.15;87.99;98896.13;5016311;28;102854;-68
2022/01/07 07:16:50;;;;;;;10.83;7.40;;;;;;;0.22;87.91;98893.34;5010343;28;103997;-68
2022/01/07 07:19:18;;;;;;;11.37;7.57;;;;;;;0.14;87.91;98884.06;5017664;28;103227;-69
2022/01/07 07:21:48;;;;;;;10.47;7.43;;;;;;;0.28;87.61;98887.13;5018051;28;103018;-69
2022/01/07 07:24:16;;;;;;;9.70;7.57;;;;;;;0.26;87.08;98887.16;5019213;28;104070;-68
2022/01/07 07:26:44;;;;;;;8.87;7.17;;;;;;;0.25;87.24;98887.19;5022248;27;104217;-69
2022/01/07 07:29:12;;;;;;;11.00;7.73;;;;;;;0.28;87.60;98887.13;5021360;27;102954;-69
2022/01/07 07:31:46;;;;;;;8.97;7.17;;;;;;;0.28;87.52;98882.75;5022597;28;102523;-68
2022/01/07 07:37:16;;;;;;;9.57;7.43;;;;;;;0.31;87.45;98877.47;4965170;28;103434;-69
2022/01/07 07:39:44;;;;;;;8.90;7.10;;;;;;;0.27;87.41;98875.88;4966843;28;103206;-69
2022/01/07 07:42:12;;;;;;;12.10;7.27;;;;;;;0.33;87.27;98873.09;4993908;27;102651;-69
2022/01/07 07:44:40;;;;;;;9.47;8.10;;;;;;;0.38;87.22;98873.81;5024597;27;103419;-69
2022/01/07 07:47:08;;;;;;;9.80;7.30;;;;;;;0.42;86.97;98872.81;5025242;27;103249;-69
2022/01/07 07:49:36;;;;;;;9.53;7.53;;;;;;;0.41;86.74;98878.91;5013625;28;103169;-68
2022/01/07 07:52:06;;;;;;;10.87;6.70;;;;;;;0.52;86.74;98879.47;5021698;28;102557;-68
2022/01/07 07:54:36;;;;;;;10.03;6.77;;;;;;;0.66;86.42;98873.00;5022911;28;103809;-68
2022/01/07 07:57:07;;;;;;;9.10;7.80;;;;;;;0.66;85.95;98873.84;5022060;27;103336;-68
2022/01/07 07:59:36;;;;;;;10.53;7.10;;;;;;;0.82;85.66;98866.41;5018393;27;103213;-68
2022/01/07 08:02:05;;;;;;;10.60;6.83;;;;;;;0.95;84.63;98859.97;5010789;27;103054;-68
2022/01/07 08:04:34;;;;;;;10.73;7.43;;;;;;;0.98;84.50;98854.66;5022331;28;103884;-68
2022/01/07 08:07:03;;;;;;;8.70;7.60;;;;;;;1.07;83.86;98855.22;5018755;28;103263;-68
2022/01/07 08:09:36;;;;;;;11.90;7.07;;;;;;;1.01;84.73;98858.00;5021524;28;103705;-68
2022/01/07 08:12:18;;;;;;;10.90;7.73;;;;;;;0.95;85.06;98857.34;5022982;27;102587;-69
2022/01/07 08:17:32;;;;;;;8.53;6.83;;;;;;;0.86;85.30;98844.63;5021597;28;104001;-68
2022/01/07 08:20:00;;;;;;;7.30;6.53;;;;;;;0.88;85.27;98837.63;5022248;27;103338;-68
2022/01/07 08:22:28;;;;;;;9.67;7.03;;;;;;;0.86;85.02;98849.84;5009160;28;102693;-69
2022/01/07 08:24:56;;;;;;;10.23;6.50;;;;;;;0.90;85.06;98852.28;5020313;28;102599;-69
2022/01/07 08:27:26;;;;;;;9.90;6.37;;;;;;;0.86;84.76;98845.50;5010052;28;103988;-68
2022/01/07 08:30:12;;;;;;;9.00;6.00;;;;;;;0.92;84.85;98844.44;5018515;27;102990;-69
2022/01/07 08:35:29;;;;;;;9.90;6.93;;;;;;;0.94;84.69;98843.50;5021788;27;102611;-69
2022/01/07 08:38:01;;;;;;;8.17;6.80;;;;;;;0.95;84.07;98837.41;5017762;27;104026;-69
2022/01/07 08:40:29;;;;;;;10.40;6.60;;;;;;;1.04;84.44;98831.88;5019433;27;103301;-69
2022/01/07 08:42:59;;;;;;;8.70;5.90;;;;;;;1.11;84.11;98829.94;5022220;27;102932;-68
2022/01/07 08:45:27;;;;;;;8.00;6.27;;;;;;;1.11;84.31;98833.41;5023925;27;102637;-69
2022/01/07 08:47:55;;;;;;;9.37;5.83;;;;;;;1.09;83.92;98836.97;5018324;27;104169;-69
2022/01/07 08:50:24;;;;;;;7.47;6.23;;;;;;;1.16;83.72;98843.66;5015025;27;103264;-68
2022/01/07 08:52:55;;;;;;;9.33;6.40;;;;;;;1.17;83.51;98840.16;5017713;28;102561;-68
2022/01/07 08:55:24;;;;;;;8.70;6.37;;;;;;;1.14;83.58;98841.13;5020905;27;102689;-68
2022/01/07 08:57:52;;;;;;;9.60;6.30;;;;;;;1.17;83.21;98840.16;5021688;28;103854;-69
2022/01/07 09:00:24;;;;;;;9.97;6.27;;;;;;;1.25;82.80;98843.38;5021843;27;103234;-68
2022/01/07 09:02:52;;;;;;;11.27;7.13;;;;;;;1.29;82.87;98834.56;5021593;27;102562;-68
2022/01/07 09:05:23;;;;;;;10.07;6.73;;;;;;;1.29;82.07;98834.56;5013257;28;102726;-68
2022/01/07 09:07:51;;;;;;;8.60;6.07;;;;;;;1.40;82.35;98832.47;5016258;28;104160;-68
2022/01/07 09:10:22;;;;;;;10.43;7.30;;;;;;;1.33;82.39;98830.94;5012716;28;104185;-68
2022/01/07 09:12:50;;;;;;;10.23;6.13;;;;;;;1.41;81.78;98828.94;5021924;27;102820;-69
2022/01/07 09:15:18;;;;;;;7.83;6.17;;;;;;;1.43;81.38;98827.13;5017921;27;103513;-69
2022/01/07 09:17:49;;;;;;;7.20;6.13;;;;;;;1.39;81.88;98830.75;5020388;27;104621;-69
2022/01/07 09:20:18;;;;;;;11.67;6.83;;;;;;;1.51;81.24;98830.34;5019484;28;103236;-69
2022/01/07 09:22:46;;;;;;;9.37;6.67;;;;;;;1.56;81.08;98830.16;5017254;28;102640;-69
2022/01/07 09:25:14;;;;;;;10.50;7.10;;;;;;;1.73;81.34;98820.88;5018600;28;102574;-68
2022/01/07 09:27:42;;;;;;;8.07;6.10;;;;;;;1.74;80.83;98825.16;5020955;28;103285;-69
2022/01/07 09:30:13;;;;;;;7.27;6.40;;;;;;;1.72;80.38;98826.13;5011097;28;104185;-69
2022/01/07 09:32:41;;;;;;;7.10;6.37;;;;;;;1.70;80.57;98826.19;5018687;27;103809;-68
2022/01/07 09:35:16;;;;;;;7.20;5.97;;;;;;;1.71;80.37;98829.66;5021293;27;102615;-68
2022/01/07 09:37:44;;;;;;;8.07;6.10;;;;;;;1.76;80.05;98819.91;5020410;27;104036;-68
2022/01/07 09:40:13;;;;;;;7.37;6.27;;;;;;;1.72;79.46;98821.78;5015154;27;103209;-68
2022/01/07 09:42:54;;;;;;;8.30;6.07;;;;;;;1.75;80.21;98823.41;5019527;27;102687;-68
2022/01/07 09:45:24;;;;;;;7.50;5.87;;;;;;;1.69;80.08;98823.63;5022785;27;103464;-68
2022/01/07 09:47:52;;;;;;;8.23;5.90;;;;;;;1.77;79.54;98820.78;5021344;27;103311;-68
2022/01/07 09:50:23;;;;;;;7.80;6.30;;;;;;;1.71;80.34;98816.63;5021383;27;103349;-68
2022/01/07 09:52:51;;;;;;;9.00;6.00;;;;;;;1.77;79.04;98818.19;5020289;28;102558;-63
2022/01/07 09:55:20;;;;;;;6.30;5.50;;;;;;;1.86;80.00;98804.78;5007288;28;104010;-67
2022/01/07 09:57:48;;;;;;;7.37;5.83;;;;;;;1.84;79.10;98802.25;5012519;28;104431;-67
2022/01/07 10:00:17;;;;;;;7.47;5.43;;;;;;;1.85;79.02;98805.72;5020646;27;103155;-67
2022/01/07 10:03:03;;;;;;;7.17;5.33;;;;;;;1.86;78.08;98804.78;5019827;28;102624;-67
2022/01/07 10:05:33;;;;;;;6.67;5.20;;;;;;;1.91;79.00;98792.47;5019285;28;102598;-67
2022/01/07 10:08:33;;;;;;;7.07;5.47;;;;;;;1.88;78.46;98796.03;5017683;28;103639;-67
2022/01/07 10:11:14;;;;;;;9.23;5.30;;;;;;;1.94;78.44;98808.00;5018226;27;103209;-68
2022/01/07 10:13:44;;;;;;;7.20;5.43;;;;;;;1.92;79.20;98791.56;5014194;28;102633;-67
2022/01/07 10:16:17;;;;;;;8.80;5.70;;;;;;;1.83;80.50;98794.47;5003152;27;102827;-67
2022/01/07 10:18:51;;;;;;;7.07;5.43;;;;;;;1.88;81.67;98795.19;5003776;28;103089;-67
2022/01/07 10:21:23;;;;;;;7.97;5.70;;;;;;;1.80;83.46;98792.03;5015493;27;103221;-68
2022/01/07 10:24:02;;;;;;;8.73;6.23;;;;;;;1.86;84.44;98802.19;5016154;28;102852;-67
2022/01/07 10:26:30;;;;;;;9.70;6.90;;;;;;;1.89;85.55;98791.66;5019440;27;104088;-67
2022/01/07 10:28:59;;;;;;;9.50;6.53;;;;;;;1.91;85.33;98785.50;5022010;27;104000;-67
2022/01/07 10:31:27;;;;;;;8.30;5.80;;;;;;;1.77;85.69;98780.78;5019787;27;102976;-67
2022/01/07 10:34:04;;;;;;;8.03;6.37;;;;;;;1.66;87.95;98776.84;5008049;28;102708;-67
2022/01/07 10:36:39;;;;;;;9.30;6.73;;;;;;;1.66;88.19;98772.50;5019888;27;103805;-67
2022/01/07 10:39:09;;;;;;;7.40;6.07;;;;;;;1.73;89.07;98763.56;5018787;28;103185;-67
2022/01/07 10:41:37;;;;;;;8.40;6.47;;;;;;;1.57;89.28;98759.78;5018127;28;103254;-67
2022/01/07 10:44:08;;;;;;;11.00;7.60;;;;;;;1.67;89.24;98763.78;5021114;28;103071;-67
2022/01/07 10:46:37;;;;;;;9.23;7.20;;;;;;;1.64;89.43;98763.91;5011159;28;102663;-67
2022/01/07 10:49:06;;;;;;;10.00;8.53;;;;;;;1.52;89.17;98759.09;5014771;27;103697;-67
2022/01/07 10:51:38;;;;;;;9.50;7.60;;;;;;;1.69;88.43;98767.19;5018921;28;102853;-67
2022/01/07 10:54:10;;;;;;;10.77;7.60;;;;;;;1.69;88.40;98766.31;5003236;28;103223;-67
2022/01/07 10:56:41;;;;;;;10.17;7.40;;;;;;;1.64;88.20;98763.91;5016462;28;103780;-67
2022/01/07 10:59:11;;;;;;;8.47;7.30;;;;;;;1.67;88.82;98760.34;5010301;28;103197;-67
2022/01/07 11:01:42;;;;;;;8.20;7.20;;;;;;;1.58;90.09;98750.22;5011846;27;103245;-67
2022/01/07 11:04:13;;;;;;;11.93;8.13;;;;;;;1.52;90.81;98753.03;5023136;27;102610;-67
2022/01/07 11:06:44;;;;;;;11.40;8.20;;;;;;;1.48;91.44;98752.31;5019093;28;103662;-67
2022/01/07 11:09:14;;;;;;;9.13;7.03;;;;;;;1.61;91.44;98753.59;5019895;27;104207;-67
2022/01/07 11:11:49;;;;;;;8.03;7.23;;;;;;;1.67;91.42;98742.09;5019381;27;103366;-67
2022/01/07 11:14:22;;;;;;;9.60;7.30;;;;;;;1.54;92.43;98746.06;5018380;28;102594;-67
2022/01/07 11:16:52;;;;;;;10.80;7.83;;;;;;;1.47;94.62;98745.41;5021632;27;102699;-66
2022/01/07 11:19:22;;;;;;;10.10;6.90;;;;;;;1.64;93.97;98743.06;5020233;27;103269;-67
2022/01/07 11:21:54;;;;;;;10.10;7.23;;;;;;;1.63;94.05;98743.09;5020604;27;102576;-67
2022/01/07 11:24:43;;;;;;;9.23;7.30;;;;;;;1.64;94.94;98737.00;5018482;28;102993;-66
2022/01/07 11:27:14;;;;;;;10.50;6.70;;;;;;;1.66;95.12;98730.81;5020337;27;102798;-67
2022/01/07 11:29:52;;;;;;;11.57;8.20;;;;;;;1.72;94.73;98735.81;5023724;27;104015;-66
2022/01/07 11:32:39;;;;;;;12.43;8.73;;;;;;;1.65;95.35;98729.16;5015042;28;103316;-66
2022/01/07 11:35:45;;;;;;;9.67;7.60;;;;;;;1.66;95.40;98719.56;5020500;27;102868;-66
2022/01/07 11:38:43;;;;;;;10.37;7.93;;;;;;;1.79;95.90;98713.00;5021769;27;102628;-66
2022/01/07 11:41:15;;;;;;;13.30;8.80;;;;;;;1.82;95.78;98712.91;5020220;27;103743;-65
2022/01/07 11:43:46;;;;;;;11.47;8.90;;;;;;;1.67;96.50;98708.25;5014849;28;105632;-66
2022/01/07 11:46:24;;;;;;;11.90;8.20;;;;;;;1.77;95.71;98707.84;5009149;28;102728;-66